createdAt,value
2022-10-28T00:01:20.321Z,2.05
2022-10-28T00:11:31.087Z,2.33
2022-10-28T00:21:35.635Z,2.00
2022-10-28T00:31:38.091Z,1.60
2022-10-28T00:41:42.496Z,1.95
2022-10-28T00:51:47.348Z,1.80
2022-10-28T01:01:49.281Z,1.65
2022-10-28T01:12:09.840Z,1.70
2022-10-28T01:22:11.518Z,1.60
2022-10-28T01:32:24.853Z,1.63
2022-10-28T01:42:42.664Z,1.48
2022-10-28T01:52:46.698Z,1.58
2022-10-28T02:02:50.580Z,1.67
2022-10-28T02:12:57.088Z,1.50
2022-10-28T02:23:17.313Z,1.60
2022-10-28T02:33:23.745Z,1.20
2022-10-28T02:43:28.072Z,1.50
2022-10-28T02:53:36.749Z,1.38
2022-10-28T03:03:38.511Z,1.45
2022-10-28T03:13:40.264Z,1.40
2022-10-28T03:23:42.030Z,1.40
2022-10-28T03:33:43.851Z,1.25
2022-10-28T03:43:45.858Z,1.20
2022-10-28T03:53:47.630Z,1.30
2022-10-28T04:03:49.383Z,1.20
2022-10-28T04:13:51.185Z,1.20
2022-10-28T04:23:52.924Z,1.10
2022-10-28T04:33:54.660Z,1.30
2022-10-28T04:43:56.566Z,1.30
2022-10-28T04:53:58.326Z,0.90
2022-10-28T05:04:00.155Z,1.20
2022-10-28T05:14:01.981Z,1.02
2022-10-28T05:24:03.963Z,1.45
2022-10-28T05:34:05.816Z,1.92
2022-10-28T05:44:07.594Z,2.20
2022-10-28T05:54:09.411Z,2.45
2022-10-28T06:04:11.262Z,2.47
2022-10-28T06:14:11.491Z,2.70
2022-10-28T06:24:13.328Z,2.40
2022-10-28T06:34:15.123Z,2.33
2022-10-28T06:44:16.924Z,3.15
2022-10-28T06:54:20.929Z,2.70
2022-10-28T07:04:22.842Z,3.30
2022-10-28T07:14:24.683Z,2.88
2022-10-28T07:34:33.311Z,2.53
2022-10-28T07:44:35.057Z,2.40
2022-10-28T07:54:36.919Z,3.70
2022-10-28T08:04:38.745Z,2.97
2022-10-28T08:14:40.753Z,2.78
2022-10-28T08:24:42.655Z,2.20
2022-10-28T08:34:44.470Z,2.72
2022-10-28T08:45:15.843Z,2.30
2022-10-28T08:55:50.307Z,2.20
2022-10-28T09:06:02.303Z,2.55
2022-10-28T09:16:44.605Z,2.50
2022-10-28T09:26:59.881Z,2.40
2022-10-28T09:37:22.733Z,2.70
2022-10-28T09:47:30.620Z,5.50
2022-10-28T09:57:32.498Z,8.27
2022-10-28T10:07:43.561Z,7.88
2022-10-28T10:17:47.792Z,6.88
2022-10-28T10:28:05.429Z,6.03
2022-10-28T10:38:14.768Z,6.15
2022-10-28T10:48:18.613Z,5.47
2022-10-28T10:58:23.775Z,5.65
2022-10-28T11:08:28.283Z,7.30
2022-10-28T11:18:41.072Z,6.93
2022-10-28T11:28:55.490Z,5.78
2022-10-28T11:39:21.205Z,7.18
2022-10-28T11:49:48.386Z,6.88
2022-10-28T11:59:53.214Z,5.93
2022-10-28T12:10:34.031Z,6.55
2022-10-28T12:20:55.573Z,5.75
2022-10-28T12:30:58.356Z,5.15
2022-10-28T12:41:08.038Z,4.40
2022-10-28T12:51:36.049Z,4.07
2022-10-28T13:01:38.306Z,4.35
2022-10-28T13:12:05.986Z,3.90
2022-10-28T13:32:40.702Z,3.22
2022-10-28T13:42:42.399Z,3.28
2022-10-28T13:52:45.620Z,2.75
2022-10-28T14:03:01.288Z,2.80
2022-10-28T14:13:17.459Z,2.35
2022-10-28T14:23:22.227Z,2.60
2022-10-28T14:33:24.158Z,2.60
2022-10-28T14:43:43.287Z,2.10
2022-10-28T14:53:46.387Z,2.40
2022-10-28T15:03:52.233Z,2.72
2022-10-28T15:13:54.610Z,2.67
2022-10-28T15:24:06.871Z,2.40
2022-10-28T15:34:21.039Z,2.33
2022-10-28T15:44:27.394Z,2.63
2022-10-28T15:54:29.186Z,2.70
2022-10-28T16:04:33.746Z,2.50
2022-10-28T16:14:48.679Z,2.20
2022-10-28T16:24:52.069Z,2.25
2022-10-28T16:34:53.889Z,2.75
2022-10-28T16:44:55.721Z,2.50
2022-10-28T16:54:58.033Z,2.05
2022-10-28T17:05:00.874Z,1.92
2022-10-28T17:15:02.661Z,2.42
2022-10-28T17:25:04.811Z,2.45
2022-10-28T17:35:06.833Z,2.63
2022-10-28T17:45:10.353Z,2.28
2022-10-28T17:55:12.248Z,2.65
2022-10-28T18:05:14.140Z,2.50
2022-10-28T18:15:15.970Z,2.58
2022-10-28T18:25:17.734Z,2.53
2022-10-28T18:35:19.500Z,2.90
2022-10-28T18:45:21.231Z,2.22
2022-10-28T18:55:23.990Z,2.47
2022-10-28T19:05:25.861Z,2.40
2022-10-28T19:15:27.636Z,2.50
2022-10-28T19:25:29.538Z,2.60
2022-10-28T19:35:32.924Z,2.70
2022-10-28T19:45:34.752Z,2.70
2022-10-28T19:55:36.527Z,2.85
2022-10-28T20:05:38.303Z,3.13
2022-10-28T20:15:40.037Z,3.22
2022-10-28T20:25:52.514Z,3.50
2022-10-28T20:35:55.181Z,4.00
2022-10-28T20:45:59.901Z,4.15
2022-10-28T20:56:02.107Z,3.95
2022-10-28T21:06:04.331Z,3.90
2022-10-28T21:16:08.515Z,4.65
2022-10-28T21:26:11.914Z,3.88
2022-10-28T21:36:17.214Z,3.65
2022-10-28T21:46:20.648Z,4.22
2022-10-28T21:56:22.936Z,4.50
2022-10-28T22:06:25.033Z,3.95
2022-10-28T22:16:28.604Z,3.80
2022-10-28T22:26:32.083Z,3.80
2022-10-28T22:36:34.320Z,3.60
2022-10-28T22:46:36.708Z,2.88
2022-10-28T22:56:39.066Z,2.08
2022-10-28T23:06:40.964Z,2.30
2022-10-28T23:16:42.816Z,2.20
2022-10-28T23:26:44.648Z,2.00
2022-10-28T23:36:46.443Z,2.08
2022-10-28T23:46:48.184Z,2.00
2022-10-28T23:56:49.950Z,2.00
